»·PEaware :: N137AD KSNA-KCRQ

N137AD :: KSNA-KCRQ

FLIGHT INFORMATION

Flight Status: Arrived
Operator: Privately registered:
United States
More flights under this callsign
Pilot: Mike Z. (25595)
Aircraft: CESSNA 172 SKYHAWK
(C172)
More flights by this aircraft type
Origin: KSNA John Wayne-Orange Co
United States
Destination: KCRQ McClellan-Palomar
United States
More flights between these airports :: More routes between these airports
Route: +V23 OCN
File this flight plan on PilotEdge
Remarks: +CW / I-2
Altitude:
(Current/Filed)
5,000ft
Speed:
(Current/Filed)
105kts
Departed: 11-Aug-19 08:15 AM
Arrived: 11-Aug-19 08:58 AM
Distance/Time
Traveled:
44nm/0:43
Distance/Time
To Go:
Arrived

Flight Plot

Page will automatically refresh every two minutes.


Map Options




Map Legend


Flown Route
Filed Route
Departure Airport
Arrival Airport
Navaid (VOR, NDB)
Fix

Horizontal Profiles

Position Reports

Time Latitude Longitude Heading Altitude Ground
Speed
11-Aug-19 07:56 33.674459 -117.871752 127 60ft 0kts
11-Aug-19 07:57 33.674459 -117.871752 127 60ft 0kts
11-Aug-19 07:58 33.674459 -117.871752 127 60ft 0kts
11-Aug-19 07:59 33.674459 -117.871752 127 60ft 0kts
11-Aug-19 08:00 33.674459 -117.871752 127 60ft 0kts
11-Aug-19 08:01 33.674459 -117.871752 127 60ft 0kts
11-Aug-19 08:02 33.674459 -117.871752 127 60ft 0kts
11-Aug-19 08:03 33.674459 -117.871752 127 60ft 0kts
11-Aug-19 08:04 33.674459 -117.871752 127 60ft 0kts
11-Aug-19 08:05 33.674459 -117.871752 127 60ft 0kts
11-Aug-19 08:06 33.674459 -117.871752 127 60ft 0kts
11-Aug-19 08:07 33.674459 -117.871752 127 60ft 0kts
11-Aug-19 08:08 33.674459 -117.871752 127 60ft 0kts
11-Aug-19 08:09 33.674553 -117.871092 36 60ft 5kts
11-Aug-19 08:10 33.678257 -117.868692 27 60ft 22kts
11-Aug-19 08:11 33.681192 -117.866394 117 60ft 0kts
11-Aug-19 08:12 33.681192 -117.866394 117 60ft 0kts
11-Aug-19 08:13 33.681150 -117.866296 117 60ft 5kts
11-Aug-19 08:14 33.669916 -117.872905 209 363ft 80kts
11-Aug-19 08:15 33.650449 -117.883379 186 1248ft 76kts
11-Aug-19 08:16 33.628963 -117.886319 186 2056ft 81kts
11-Aug-19 08:17 33.606997 -117.889321 186 2937ft 76kts
11-Aug-19 08:18 33.584540 -117.892385 186 3663ft 87kts
11-Aug-19 08:19 33.559280 -117.895906 186 4374ft 94kts
11-Aug-19 08:20 33.533046 -117.899577 186 5074ft 95kts
11-Aug-19 08:21 33.505426 -117.903430 186 5109ft 147kts
11-Aug-19 08:22 33.474908 -117.912728 199 5020ft 93kts
11-Aug-19 08:23 33.460499 -117.889910 102 5022ft 104kts
11-Aug-19 08:24 33.450187 -117.857446 106 5022ft 106kts
11-Aug-19 08:25 33.443241 -117.822537 102 5021ft 108kts
11-Aug-19 08:26 33.436221 -117.786129 102 5022ft 120kts
11-Aug-19 08:27 33.428643 -117.746823 102 5021ft 122kts
11-Aug-19 08:28 33.421005 -117.707154 102 5021ft 122kts
11-Aug-19 08:29 33.414722 -117.667442 86 5021ft 121kts
11-Aug-19 08:30 33.407873 -117.627723 102 5021ft 122kts
11-Aug-19 08:31 33.395758 -117.591779 136 5021ft 121kts
11-Aug-19 08:32 33.370869 -117.564265 140 5021ft 122kts
11-Aug-19 08:33 33.345449 -117.537403 137 5021ft 122kts
11-Aug-19 08:34 33.321313 -117.508804 135 5021ft 122kts
11-Aug-19 08:35 33.290163 -117.506409 147 5018ft 116kts
11-Aug-19 08:36 33.279701 -117.470824 102 5021ft 115kts
11-Aug-19 08:37 33.272480 -117.433548 102 5021ft 115kts
11-Aug-19 08:38 33.265827 -117.395948 100 5021ft 115kts
11-Aug-19 08:39 33.259699 -117.358257 100 5021ft 115kts
11-Aug-19 08:40 33.253589 -117.320620 101 5021ft 115kts
11-Aug-19 08:41 33.247468 -117.282857 101 5022ft 116kts
11-Aug-19 08:42 33.241250 -117.244444 100 5021ft 118kts
11-Aug-19 08:43 33.234993 -117.205742 100 5021ft 118kts
11-Aug-19 08:44 33.228719 -117.166880 100 5021ft 118kts
11-Aug-19 08:45 33.222484 -117.128195 100 5021ft 118kts
11-Aug-19 08:46 33.216223 -117.089298 100 5021ft 118kts
11-Aug-19 08:47 33.209995 -117.050536 100 5021ft 119kts
11-Aug-19 08:48 33.191477 -117.019121 151 4758ft 133kts
11-Aug-19 08:49 33.161937 -117.028020 255 4237ft 129kts
11-Aug-19 08:50 33.174933 -117.064623 270 3793ft 127kts
11-Aug-19 08:51 33.156552 -117.099178 254 3282ft 128kts
11-Aug-19 08:52 33.150249 -117.139885 259 3009ft 113kts
11-Aug-19 08:53 33.144846 -117.176797 255 2086ft 114kts
11-Aug-19 08:54 33.138347 -117.215338 259 1386ft 110kts
11-Aug-19 08:55 33.133895 -117.243649 259 909ft 70kts
11-Aug-19 08:56 33.130458 -117.265924 258 499ft 63kts
11-Aug-19 08:57 33.127890 -117.278323 109 335ft 10kts
11-Aug-19 08:58 33.127817 -117.277939 94 335ft 9kts
11-Aug-19 08:59 33.127689 -117.275419 161 335ft 0kts
11-Aug-19 09:00 33.127690 -117.275420 161 335ft 0kts
11-Aug-19 09:01 33.127690 -117.275420 161 335ft 0kts
11-Aug-19 09:02 33.127690 -117.275420 161 335ft 0kts

Navigation Log

Ident Type
Flight plan parsing failed, navigation log unavailable